Time;durP1;ratioP1;P1;durP2;ratioP2;P2;SDS_P1;SDS_P2;PMS_P1;PMS_P2;Temp;Humidity;BMP_temperature;BMP_pressure;BME280_temperature;BME280_humidity;BME280_pressure;Samples;Min_cycle;Max_cycle;Signal;HPM_P1;HPM_P2
2023/12/26 00:01:27;;;;;;;3.75;0.98;;;10.90;99.90;;;;;;5076499;28;20032;-62
2023/12/26 00:03:53;;;;;;;2.85;1.40;;;10.80;99.90;;;;;;5060011;28;20040;-68
2023/12/26 00:06:22;;;;;;;2.78;1.10;;;10.80;99.90;;;;;;5043215;28;20048;-61
2023/12/26 00:08:48;;;;;;;2.05;0.88;;;10.80;99.90;;;;;;5060643;28;20040;-68
2023/12/26 00:11:15;;;;;;;1.35;0.70;;;10.70;99.90;;;;;;5060436;28;20021;-64
2023/12/26 00:13:41;;;;;;;2.65;1.00;;;10.70;99.90;;;;;;5060516;28;20304;-65
2023/12/26 00:16:07;;;;;;;2.40;1.00;;;10.70;99.90;;;;;;5076179;28;20112;-59
2023/12/26 00:18:33;;;;;;;3.00;1.13;;;10.60;99.90;;;;;;5060350;28;20048;-63
2023/12/26 00:20:59;;;;;;;3.47;1.00;;;10.70;99.90;;;;;;5060353;28;20041;-64
2023/12/26 00:23:24;;;;;;;4.00;1.33;;;10.70;99.90;;;;;;5076344;28;20036;-61
2023/12/26 00:25:50;;;;;;;3.00;1.25;;;10.80;99.90;;;;;;5060143;28;20064;-57
2023/12/26 00:28:19;;;;;;;3.13;1.33;;;10.80;99.90;;;;;;5060144;28;20036;-59
2023/12/26 00:30:45;;;;;;;3.17;1.20;;;10.80;99.90;;;;;;5059877;28;20140;-59
2023/12/26 00:33:11;;;;;;;5.95;1.38;;;10.70;99.90;;;;;;5060087;28;20094;-60
2023/12/26 00:35:37;;;;;;;2.22;1.10;;;10.70;99.90;;;;;;5060132;28;20025;-59
2023/12/26 00:38:03;;;;;;;3.22;1.10;;;10.70;99.90;;;;;;5059871;28;20037;-58
2023/12/26 00:40:29;;;;;;;1.80;0.93;;;10.70;99.90;;;;;;5059117;28;20052;-64
2023/12/26 00:42:54;;;;;;;2.33;1.30;;;10.70;99.90;;;;;;5059827;28;20033;-59
2023/12/26 00:45:22;;;;;;;3.75;1.00;;;10.70;99.90;;;;;;5058967;28;20047;-58
2023/12/26 00:47:49;;;;;;;4.15;1.15;;;10.60;99.90;;;;;;5042682;28;20093;-60
2023/12/26 00:50:16;;;;;;;2.47;0.85;;;10.70;99.90;;;;;;5059611;28;20296;-62
2023/12/26 00:52:43;;;;;;;3.67;1.20;;;10.80;99.90;;;;;;5059986;28;20047;-60
2023/12/26 00:55:09;;;;;;;2.05;1.02;;;10.70;99.90;;;;;;5059616;28;20025;-61
2023/12/26 00:57:35;;;;;;;3.05;1.15;;;10.80;99.90;;;;;;5059306;28;20415;-61
2023/12/26 01:00:04;;;;;;;2.15;0.98;;;10.70;99.90;;;;;;5058070;28;20074;-60
2023/12/26 01:02:30;;;;;;;1.95;1.33;;;10.70;99.90;;;;;;5058728;28;20037;-61
2023/12/26 01:04:56;;;;;;;2.42;0.90;;;10.80;99.90;;;;;;5059413;28;20025;-60
2023/12/26 01:07:22;;;;;;;2.33;1.27;;;10.80;99.90;;;;;;5059352;28;20319;-63
2023/12/26 01:09:48;;;;;;;1.13;0.82;;;10.80;99.90;;;;;;5059284;28;20108;-63
2023/12/26 01:12:14;;;;;;;1.98;1.00;;;10.80;99.90;;;;;;5059240;28;20072;-60
2023/12/26 01:14:41;;;;;;;3.58;1.08;;;10.80;99.90;;;;;;5059258;28;20021;-60
2023/12/26 01:17:06;;;;;;;3.25;1.05;;;10.70;99.90;;;;;;5059118;28;20086;-61
2023/12/26 01:19:32;;;;;;;2.88;1.10;;;10.80;99.90;;;;;;5058405;28;20037;-59
2023/12/26 01:21:58;;;;;;;3.00;1.10;;;10.80;99.90;;;;;;5059215;28;20044;-59
2023/12/26 01:24:25;;;;;;;2.42;1.00;;;10.70;99.90;;;;;;5058241;28;20021;-59
2023/12/26 01:26:51;;;;;;;1.40;1.02;;;10.70;99.90;;;;;;5059036;28;20304;-58
2023/12/26 01:29:17;;;;;;;2.17;1.00;;;10.70;99.90;;;;;;5058902;28;20053;-59
2023/12/26 01:31:43;;;;;;;3.15;1.10;;;10.60;99.90;;;;;;5058925;28;20040;-61
2023/12/26 01:34:08;;;;;;;3.13;1.00;;;10.70;99.90;;;;;;5058175;28;20033;-60
2023/12/26 01:36:34;;;;;;;3.05;1.02;;;10.70;99.90;;;;;;5058170;28;20025;-59
2023/12/26 01:39:00;;;;;;;2.30;0.90;;;10.70;99.90;;;;;;5058756;28;20412;-60
2023/12/26 01:41:26;;;;;;;2.88;1.00;;;10.70;99.90;;;;;;5058751;28;20032;-62
2023/12/26 01:43:52;;;;;;;3.05;0.80;;;10.70;99.90;;;;;;5057939;28;20033;-65
2023/12/26 01:46:19;;;;;;;3.40;1.00;;;10.80;99.90;;;;;;5058590;28;20033;-65
2023/12/26 01:48:47;;;;;;;1.77;1.02;;;10.80;99.90;;;;;;5058563;28;20380;-60
2023/12/26 01:51:15;;;;;;;2.95;1.00;;;10.80;99.90;;;;;;5058378;28;20036;-62
2023/12/26 01:53:42;;;;;;;3.08;0.85;;;10.80;99.90;;;;;;5058571;28;20043;-63
2023/12/26 01:56:10;;;;;;;2.22;0.90;;;10.70;99.90;;;;;;5058544;28;20098;-64
2023/12/26 01:58:37;;;;;;;5.28;0.88;;;10.70;99.90;;;;;;5041479;28;20033;-60
2023/12/26 02:01:04;;;;;;;2.42;0.82;;;10.70;99.90;;;;;;5057726;28;20304;-65
2023/12/26 02:03:31;;;;;;;3.97;1.13;;;10.70;99.90;;;;;;5058504;28;20029;-64
2023/12/26 02:05:59;;;;;;;2.53;0.90;;;10.70;99.90;;;;;;5058292;28;20048;-63
2023/12/26 02:08:25;;;;;;;2.55;0.80;;;10.70;99.90;;;;;;5057377;28;20411;-62
2023/12/26 02:10:50;;;;;;;1.17;0.80;;;10.70;99.90;;;;;;5058208;28;20028;-60
2023/12/26 02:13:16;;;;;;;1.88;0.80;;;10.70;99.90;;;;;;5058149;28;20033;-62
2023/12/26 02:15:43;;;;;;;2.08;0.80;;;10.70;99.90;;;;;;5058297;28;20203;-64
2023/12/26 02:18:09;;;;;;;1.73;0.90;;;10.70;99.90;;;;;;5057333;28;20024;-66
2023/12/26 02:20:35;;;;;;;2.67;1.00;;;10.80;99.90;;;;;;5058012;28;20037;-64
2023/12/26 02:23:01;;;;;;;2.13;0.90;;;10.80;99.90;;;;;;5058219;28;20074;-64
2023/12/26 02:25:28;;;;;;;3.47;0.80;;;10.80;99.90;;;;;;5073775;28;20036;-61
2023/12/26 02:27:54;;;;;;;3.15;0.90;;;10.80;99.90;;;;;;5057859;28;20285;-65
2023/12/26 02:30:22;;;;;;;2.65;0.95;;;10.80;99.90;;;;;;5057567;28;20044;-65
2023/12/26 02:32:49;;;;;;;3.05;0.70;;;10.90;99.90;;;;;;5057957;28;20035;-65
2023/12/26 02:35:16;;;;;;;2.72;0.90;;;10.80;99.90;;;;;;5057073;28;20086;-64
2023/12/26 02:37:42;;;;;;;3.22;0.85;;;10.90;99.90;;;;;;5040321;28;20033;-66
2023/12/26 02:40:08;;;;;;;3.72;0.93;;;11.00;99.90;;;;;;5057634;28;20361;-64
2023/12/26 02:42:34;;;;;;;3.08;1.02;;;10.90;99.90;;;;;;5057564;28;20108;-64
2023/12/26 02:45:00;;;;;;;3.08;0.77;;;10.90;99.90;;;;;;5057566;28;20063;-66
2023/12/26 02:47:26;;;;;;;2.00;0.93;;;10.90;99.90;;;;;;5058062;28;20033;-60
2023/12/26 02:49:52;;;;;;;3.05;0.90;;;10.80;99.90;;;;;;5057414;28;20025;-65
2023/12/26 02:52:18;;;;;;;2.78;0.80;;;10.80;99.90;;;;;;5073217;28;20036;-62
2023/12/26 02:54:45;;;;;;;5.07;1.65;;;10.80;99.90;;;;;;5057373;28;20274;-66
2023/12/26 02:57:10;;;;;;;2.33;0.80;;;10.70;99.90;;;;;;5057292;28;20036;-65
2023/12/26 02:59:36;;;;;;;1.80;0.80;;;10.70;99.90;;;;;;5057452;28;20052;-68
2023/12/26 03:02:02;;;;;;;2.35;0.90;;;10.70;99.90;;;;;;5057208;28;20087;-65
2023/12/26 03:04:28;;;;;;;2.92;0.80;;;10.70;99.90;;;;;;5056392;28;20308;-69
2023/12/26 03:06:54;;;;;;;3.30;0.80;;;10.70;99.90;;;;;;5073017;28;20400;-69
2023/12/26 03:09:19;;;;;;;3.72;0.70;;;10.80;99.90;;;;;;5039866;28;20039;-70
2023/12/26 03:11:45;;;;;;;1.85;0.60;;;10.80;99.90;;;;;;5056939;28;20033;-70
2023/12/26 03:14:14;;;;;;;1.80;0.90;;;10.90;99.90;;;;;;5057085;28;20063;-68
2023/12/26 03:16:40;;;;;;;2.13;0.60;;;11.00;99.90;;;;;;5057041;28;20423;-73
2023/12/26 03:19:06;;;;;;;4.30;0.88;;;11.00;99.90;;;;;;5072913;28;20084;-69
2023/12/26 03:21:32;;;;;;;2.05;0.73;;;11.10;99.90;;;;;;5056421;28;20029;-71
2023/12/26 03:23:58;;;;;;;1.67;0.70;;;11.20;99.90;;;;;;5056880;28;20093;-67
2023/12/26 03:26:24;;;;;;;2.78;0.80;;;11.10;99.90;;;;;;5056188;28;20025;-71
2023/12/26 03:28:49;;;;;;;2.13;1.10;;;11.10;99.90;;;;;;5056575;28;20135;-68
2023/12/26 03:31:15;;;;;;;5.50;0.82;;;11.00;99.90;;;;;;5056779;28;20067;-70
2023/12/26 03:33:42;;;;;;;3.30;0.75;;;11.00;99.90;;;;;;5039728;28;20033;-70
2023/12/26 03:36:08;;;;;;;3.85;1.08;;;11.10;99.90;;;;;;5056017;28;20032;-69
2023/12/26 03:38:37;;;;;;;3.38;0.88;;;11.20;99.90;;;;;;5072717;28;20033;-71
2023/12/26 03:41:03;;;;;;;3.40;1.15;;;11.20;99.90;;;;;;5056680;28;20041;-69
2023/12/26 03:43:29;;;;;;;4.80;1.00;;;11.20;99.90;;;;;;5072676;28;20158;-71
2023/12/26 03:45:55;;;;;;;6.53;1.00;;;11.30;99.90;;;;;;5056679;28;20037;-72
2023/12/26 03:48:20;;;;;;;4.70;1.10;;;11.30;99.90;;;;;;5072655;28;20029;-72
2023/12/26 03:50:47;;;;;;;4.65;1.40;;;11.20;99.90;;;;;;5072480;28;20040;-68
2023/12/26 03:53:13;;;;;;;4.72;1.17;;;11.10;99.90;;;;;;5072524;28;20340;-69
2023/12/26 03:55:40;;;;;;;5.32;1.40;;;11.10;99.90;;;;;;5056131;28;20053;-71
2023/12/26 03:58:06;;;;;;;4.32;1.70;;;11.20;99.90;;;;;;5055630;28;20418;-73
2023/12/26 04:00:32;;;;;;;5.82;1.55;;;11.20;99.90;;;;;;5056607;28;20100;-71
2023/12/26 04:02:57;;;;;;;4.55;1.50;;;11.20;99.90;;;;;;5055762;28;20369;-68
2023/12/26 04:05:24;;;;;;;8.65;1.88;;;11.10;99.90;;;;;;5039185;28;20075;-72
2023/12/26 04:07:50;;;;;;;4.55;1.40;;;11.00;99.90;;;;;;5055762;28;20053;-73
2023/12/26 04:10:16;;;;;;;8.52;1.98;;;11.00;99.90;;;;;;5056350;28;20025;-69
2023/12/26 04:12:42;;;;;;;4.85;1.55;;;11.00;99.90;;;;;;5056480;28;20083;-71
2023/12/26 04:15:08;;;;;;;6.95;1.98;;;10.90;99.90;;;;;;5055646;28;20056;-71
2023/12/26 04:17:35;;;;;;;7.28;1.80;;;11.00;99.90;;;;;;5055548;28;20462;-72
2023/12/26 04:20:01;;;;;;;5.90;1.95;;;11.00;99.90;;;;;;5056399;28;20029;-71
2023/12/26 04:22:28;;;;;;;6.32;1.88;;;11.10;99.90;;;;;;5072242;28;20025;-72
2023/12/26 04:24:54;;;;;;;4.18;1.83;;;11.00;99.90;;;;;;5072627;28;20308;-71
2023/12/26 04:27:20;;;;;;;6.70;1.92;;;11.20;99.90;;;;;;5072171;28;20029;-72
2023/12/26 04:29:46;;;;;;;10.52;2.55;;;11.10;99.90;;;;;;5071945;28;20044;-71
2023/12/26 04:32:12;;;;;;;6.00;1.95;;;11.10;99.90;;;;;;5039028;28;20033;-74
2023/12/26 04:34:38;;;;;;;8.55;2.38;;;11.10;99.90;;;;;;5076010;28;20297;-72
2023/12/26 04:37:05;;;;;;;6.55;2.15;;;11.20;99.90;;;;;;5042544;28;20025;-70
2023/12/26 04:39:31;;;;;;;9.70;2.30;;;11.30;99.90;;;;;;5059256;28;20029;-71
2023/12/26 04:41:58;;;;;;;6.15;2.13;;;11.20;99.90;;;;;;5075722;28;20048;-71
2023/12/26 04:44:24;;;;;;;5.22;2.08;;;11.30;99.90;;;;;;5059800;28;20404;-69
2023/12/26 04:46:53;;;;;;;4.72;2.00;;;11.30;99.90;;;;;;5059995;28;20100;-72
2023/12/26 04:49:18;;;;;;;4.13;1.88;;;11.30;99.90;;;;;;5075728;28;20091;-72
2023/12/26 04:51:44;;;;;;;8.10;2.60;;;11.20;99.90;;;;;;5042274;28;20033;-72
2023/12/26 04:54:10;;;;;;;7.75;2.25;;;11.20;99.90;;;;;;5059658;28;20025;-71
2023/12/26 04:56:39;;;;;;;3.63;2.08;;;11.30;99.90;;;;;;5075535;28;20030;-71
2023/12/26 04:59:05;;;;;;;5.70;2.10;;;11.30;99.90;;;;;;5042597;28;20037;-72
2023/12/26 05:01:31;;;;;;;6.70;2.10;;;11.40;99.90;;;;;;5075369;28;20112;-72
2023/12/26 05:03:58;;;;;;;7.82;2.22;;;11.50;99.90;;;;;;5075349;28;20094;-71
2023/12/26 05:06:24;;;;;;;5.88;2.00;;;11.40;99.90;;;;;;5075283;28;20071;-72
2023/12/26 05:08:50;;;;;;;5.05;2.20;;;11.50;99.90;;;;;;5042016;28;20416;-73
2023/12/26 05:11:23;;;;;;;10.23;2.28;;;11.50;99.90;;;;;;5075104;28;20041;-71
2023/12/26 05:13:49;;;;;;;5.60;1.90;;;11.40;99.90;;;;;;5059134;28;20017;-72
2023/12/26 05:16:17;;;;;;;7.10;2.50;;;11.40;99.90;;;;;;5059267;28;20076;-70
2023/12/26 05:18:43;;;;;;;11.25;2.00;;;11.40;99.90;;;;;;5058447;28;20063;-71
2023/12/26 05:21:20;;;;;;;9.50;1.90;;;11.30;99.90;;;;;;5058385;28;20431;-70
2023/12/26 05:23:47;;;;;;;8.35;1.63;;;11.20;99.90;;;;;;5074977;28;20028;-69
2023/12/26 05:26:14;;;;;;;6.00;1.20;;;11.20;99.90;;;;;;5074989;28;20438;-70
2023/12/26 05:28:40;;;;;;;7.88;1.30;;;11.30;99.90;;;;;;5058070;28;20039;-71
2023/12/26 05:31:06;;;;;;;7.13;1.13;;;11.30;99.90;;;;;;5058741;28;20091;-69
2023/12/26 05:33:32;;;;;;;5.28;1.00;;;11.40;99.90;;;;;;5058256;28;20021;-69
2023/12/26 05:36:00;;;;;;;8.20;1.17;;;11.50;99.90;;;;;;5074781;28;20037;-69
2023/12/26 05:38:26;;;;;;;6.55;1.40;;;11.50;99.90;;;;;;5074685;28;20033;-68
2023/12/26 05:40:52;;;;;;;8.98;1.45;;;11.50;99.90;;;;;;5058331;28;20029;-69
2023/12/26 05:43:19;;;;;;;6.45;1.10;;;11.50;99.90;;;;;;5074618;28;20400;-68
2023/12/26 05:45:45;;;;;;;5.40;1.30;;;11.50;99.90;;;;;;5040734;28;20119;-71
2023/12/26 05:48:10;;;;;;;6.03;1.33;;;11.40;99.90;;;;;;5074535;28;20120;-70
2023/12/26 05:50:36;;;;;;;3.60;1.13;;;11.30;99.90;;;;;;5057697;28;20039;-69
2023/12/26 05:53:03;;;;;;;6.47;1.13;;;11.30;99.90;;;;;;5074363;28;20029;-68
2023/12/26 05:55:28;;;;;;;9.18;1.27;;;11.20;99.90;;;;;;5058468;28;20091;-69
2023/12/26 05:57:54;;;;;;;3.13;1.08;;;11.10;99.90;;;;;;5057677;28;20055;-69
2023/12/26 06:00:20;;;;;;;5.78;0.98;;;11.10;99.90;;;;;;5074290;28;20032;-69
2023/12/26 06:02:46;;;;;;;6.18;0.85;;;11.10;99.90;;;;;;5040997;28;20380;-69
2023/12/26 06:05:14;;;;;;;6.10;1.10;;;11.30;99.90;;;;;;5057435;28;20347;-70
2023/12/26 06:07:40;;;;;;;6.43;1.20;;;11.20;99.90;;;;;;5058249;28;20087;-67
2023/12/26 06:10:06;;;;;;;9.98;1.48;;;11.30;99.90;;;;;;5057331;28;20339;-71
2023/12/26 06:12:33;;;;;;;6.07;1.50;;;11.30;99.90;;;;;;5057203;28;20033;-67
2023/12/26 06:14:59;;;;;;;7.90;1.60;;;11.30;99.90;;;;;;5058070;28;20127;-67
2023/12/26 06:17:26;;;;;;;5.25;1.40;;;11.10;99.90;;;;;;5057324;28;20316;-67
2023/12/26 06:19:52;;;;;;;8.65;1.58;;;11.30;99.90;;;;;;5073888;28;20032;-69
2023/12/26 06:22:18;;;;;;;5.00;1.50;;;11.20;99.90;;;;;;5057026;28;20028;-69
2023/12/26 06:24:44;;;;;;;7.10;1.73;;;11.20;99.90;;;;;;5040642;28;20090;-69
2023/12/26 06:27:10;;;;;;;7.82;1.73;;;11.30;99.90;;;;;;5073685;28;20029;-68
2023/12/26 06:29:35;;;;;;;6.45;1.40;;;11.20;99.90;;;;;;5057637;28;20045;-68
2023/12/26 06:32:01;;;;;;;6.10;1.17;;;11.20;99.90;;;;;;5056791;28;20040;-71
2023/12/26 06:34:28;;;;;;;6.82;1.30;;;11.00;99.90;;;;;;5073564;28;20510;-68
2023/12/26 06:36:54;;;;;;;4.85;1.25;;;11.00;99.90;;;;;;5056848;28;20021;-70
2023/12/26 06:39:20;;;;;;;5.50;1.30;;;11.00;99.90;;;;;;5056970;28;20025;-70
2023/12/26 06:41:46;;;;;;;11.15;1.30;;;10.90;99.90;;;;;;5056841;28;20043;-70
2023/12/26 06:44:12;;;;;;;5.45;1.35;;;10.90;99.90;;;;;;5057562;28;20102;-69
2023/12/26 06:46:41;;;;;;;5.13;1.20;;;11.00;99.90;;;;;;5057550;28;20037;-71
2023/12/26 06:49:08;;;;;;;7.10;1.50;;;11.00;99.90;;;;;;5040319;28;20350;-69
2023/12/26 06:51:39;;;;;;;7.07;1.20;;;11.00;99.90;;;;;;5073131;28;20053;-71
2023/12/26 06:54:06;;;;;;;5.43;1.00;;;10.90;99.90;;;;;;5056580;28;20020;-69
2023/12/26 06:56:32;;;;;;;6.40;1.40;;;10.70;99.90;;;;;;5072320;28;20026;-69
2023/12/26 06:58:59;;;;;;;5.00;1.15;;;10.70;99.90;;;;;;5056430;28;20367;-69
2023/12/26 07:01:25;;;;;;;6.75;1.27;;;10.60;99.90;;;;;;5057214;28;20029;-69
2023/12/26 07:03:51;;;;;;;7.95;1.13;;;10.60;99.90;;;;;;5057172;28;20308;-70
2023/12/26 07:06:17;;;;;;;4.93;0.98;;;10.60;99.90;;;;;;5056319;28;20043;-68
2023/12/26 07:08:43;;;;;;;7.13;1.20;;;10.40;99.90;;;;;;5056397;28;20041;-69
2023/12/26 07:11:09;;;;;;;6.85;1.10;;;10.40;99.90;;;;;;5023249;28;20110;-69
2023/12/26 07:13:35;;;;;;;4.00;0.98;;;10.40;99.90;;;;;;5039873;28;20032;-70
2023/12/26 07:16:00;;;;;;;6.95;0.85;;;10.40;99.90;;;;;;5072928;28;20028;-69
2023/12/26 07:18:26;;;;;;;4.20;1.00;;;10.50;99.90;;;;;;5072820;28;20025;-69
2023/12/26 07:20:52;;;;;;;5.32;1.20;;;10.50;99.90;;;;;;5056909;28;20028;-70
2023/12/26 07:23:18;;;;;;;8.90;1.40;;;10.40;99.90;;;;;;5056869;28;20071;-69
2023/12/26 07:25:44;;;;;;;9.23;1.30;;;10.60;99.90;;;;;;5056845;28;20052;-71
2023/12/26 07:28:16;;;;;;;7.63;1.60;;;10.60;99.90;;;;;;5056841;28;20292;-70
2023/12/26 07:30:43;;;;;;;7.90;1.80;;;10.70;99.90;;;;;;5056702;28;20041;-71
2023/12/26 07:33:09;;;;;;;8.05;1.50;;;10.70;99.90;;;;;;5056659;28;20029;-71
2023/12/26 07:35:36;;;;;;;5.60;0.90;;;10.70;99.90;;;;;;5056751;28;20040;-70
2023/12/26 07:38:02;;;;;;;6.85;1.33;;;10.70;99.90;;;;;;5055982;28;20021;-69
2023/12/26 07:40:30;;;;;;;5.70;1.60;;;10.60;99.90;;;;;;5056573;28;20025;-69
2023/12/26 07:42:57;;;;;;;6.00;1.10;;;10.40;99.90;;;;;;5056758;28;20030;-69
2023/12/26 07:45:24;;;;;;;6.88;1.20;;;10.40;99.90;;;;;;5056501;28;20125;-70
2023/12/26 07:47:51;;;;;;;7.32;1.40;;;10.40;99.90;;;;;;5056530;28;20029;-71
2023/12/26 07:50:17;;;;;;;8.52;1.50;;;10.30;99.90;;;;;;5056590;28;20278;-70
2023/12/26 07:52:43;;;;;;;6.82;1.08;;;10.30;99.90;;;;;;5056600;28;20116;-71
2023/12/26 07:55:08;;;;;;;7.75;1.45;;;10.30;99.90;;;;;;5039471;28;20032;-71
2023/12/26 07:57:34;;;;;;;7.88;1.00;;;10.20;99.90;;;;;;5039350;28;20033;-70
2023/12/26 08:00:00;;;;;;;11.40;1.10;;;10.20;99.90;;;;;;5056531;28;20033;-73
2023/12/26 08:02:27;;;;;;;6.68;1.10;;;10.20;99.90;;;;;;5056561;28;20347;-70
2023/12/26 08:04:53;;;;;;;5.80;1.10;;;10.20;99.90;;;;;;5056734;28;20041;-71
2023/12/26 08:07:19;;;;;;;6.28;1.20;;;10.10;99.90;;;;;;5055798;28;20082;-73
2023/12/26 08:09:45;;;;;;;3.45;0.77;;;10.10;99.90;;;;;;5060488;28;20079;-70
2023/12/26 08:12:10;;;;;;;6.70;1.10;;;10.10;99.90;;;;;;5060476;28;20384;-68
2023/12/26 08:14:36;;;;;;;7.70;1.00;;;10.00;99.90;;;;;;5060829;28;20025;-72
2023/12/26 08:17:02;;;;;;;5.60;1.33;;;10.00;99.90;;;;;;5059550;28;20051;-72
2023/12/26 08:19:29;;;;;;;10.27;1.80;;;10.00;99.90;;;;;;5060244;28;20112;-69
2023/12/26 08:21:55;;;;;;;8.13;1.40;;;9.80;99.90;;;;;;5060236;28;20402;-69
2023/12/26 08:24:21;;;;;;;6.22;1.00;;;9.80;99.90;;;;;;5060145;28;20025;-69
2023/12/26 08:26:54;;;;;;;4.38;0.93;;;9.90;99.90;;;;;;5076090;28;20052;-68
2023/12/26 08:29:20;;;;;;;6.60;1.05;;;9.90;99.90;;;;;;5059929;28;20045;-68
2023/12/26 08:31:46;;;;;;;5.50;0.98;;;10.00;99.90;;;;;;5060104;28;20028;-70
2023/12/26 08:34:13;;;;;;;6.53;1.10;;;10.00;99.90;;;;;;5059899;28;20037;-70
2023/12/26 08:36:39;;;;;;;10.85;1.38;;;10.00;99.90;;;;;;5075876;28;20063;-69
2023/12/26 08:39:04;;;;;;;12.15;1.35;;;9.90;99.90;;;;;;5059066;28;20033;-70
2023/12/26 08:41:30;;;;;;;10.68;1.45;;;9.90;99.90;;;;;;5059981;28;20033;-69
2023/12/26 08:43:56;;;;;;;10.40;1.15;;;9.90;99.90;;;;;;5075753;28;20278;-70
2023/12/26 08:46:22;;;;;;;7.40;0.98;;;9.80;99.90;;;;;;5059885;28;20069;-69
2023/12/26 08:48:48;;;;;;;9.00;1.58;;;9.80;99.90;;;;;;5059736;28;20388;-70
2023/12/26 08:51:14;;;;;;;6.85;1.10;;;9.80;99.90;;;;;;5059521;28;20368;-72
2023/12/26 08:53:39;;;;;;;8.32;1.30;;;9.80;99.90;;;;;;5059637;28;20021;-71
2023/12/26 08:56:05;;;;;;;5.57;1.27;;;9.80;99.90;;;;;;5058962;28;20108;-68
2023/12/26 08:58:32;;;;;;;8.93;1.35;;;9.80;99.90;;;;;;5059591;28;20393;-70
2023/12/26 09:01:01;;;;;;;8.82;1.25;;;9.90;99.90;;;;;;5059519;28;20029;-69
2023/12/26 09:03:27;;;;;;;8.18;1.33;;;9.80;99.90;;;;;;5059626;28;20397;-69
2023/12/26 09:05:54;;;;;;;9.80;1.45;;;9.80;99.90;;;;;;5075370;28;20045;-70
2023/12/26 09:08:20;;;;;;;7.35;1.38;;;9.80;99.90;;;;;;5059354;28;20033;-72
2023/12/26 09:10:46;;;;;;;8.27;1.25;;;9.90;99.90;;;;;;5042047;28;20067;-69
2023/12/26 09:13:12;;;;;;;8.07;1.38;;;9.90;99.90;;;;;;5059205;28;20033;-69
2023/12/26 09:15:38;;;;;;;6.28;1.60;;;10.00;99.90;;;;;;5059176;28;20350;-71
2023/12/26 09:18:04;;;;;;;6.85;1.00;;;10.10;99.90;;;;;;5042140;28;20048;-71
2023/12/26 09:20:29;;;;;;;7.15;1.10;;;10.10;99.90;;;;;;5040912;28;20037;-72
2023/12/26 09:22:55;;;;;;;10.65;1.38;;;10.30;99.90;;;;;;5059063;28;20305;-72
2023/12/26 09:25:21;;;;;;;6.20;1.40;;;10.30;99.90;;;;;;5074995;28;20087;-71
2023/12/26 09:27:47;;;;;;;7.75;1.35;;;10.30;99.90;;;;;;5058988;28;20108;-71
2023/12/26 09:30:13;;;;;;;5.75;1.30;;;10.30;99.90;;;;;;5058693;28;20052;-71
2023/12/26 09:32:39;;;;;;;8.60;1.15;;;10.30;99.90;;;;;;5058345;28;20029;-72
2023/12/26 09:35:05;;;;;;;10.23;1.40;;;10.30;99.90;;;;;;5074751;28;20033;-71
2023/12/26 09:37:35;;;;;;;9.13;1.00;;;10.30;99.90;;;;;;5058372;28;20047;-72
2023/12/26 09:40:02;;;;;;;8.25;1.10;;;10.50;96.40;;;;;;5058073;28;20053;-72
2023/12/26 09:42:29;;;;;;;5.68;1.00;;;10.50;93.90;;;;;;5074922;28;20067;-72
2023/12/26 09:44:55;;;;;;;7.90;1.35;;;10.40;99.90;;;;;;5058738;28;20086;-68
2023/12/26 09:47:23;;;;;;;10.63;1.33;;;10.50;97.10;;;;;;5057986;28;20082;-71
2023/12/26 09:49:50;;;;;;;9.68;1.13;;;10.40;99.90;;;;;;5074519;28;20392;-71
2023/12/26 09:52:16;;;;;;;5.97;1.00;;;10.30;99.90;;;;;;5058564;28;20033;-69
2023/12/26 09:54:44;;;;;;;10.10;1.42;;;10.20;99.90;;;;;;5058764;28;20094;-70
2023/12/26 09:57:10;;;;;;;7.93;1.40;;;10.10;99.90;;;;;;5058478;28;20332;-70
2023/12/26 09:59:39;;;;;;;8.98;1.40;;;10.00;99.90;;;;;;5058272;28;20021;-71
2023/12/26 10:02:11;;;;;;;6.15;1.05;;;10.00;99.90;;;;;;5057596;28;20040;-69
2023/12/26 10:04:37;;;;;;;9.50;1.43;;;10.00;99.90;;;;;;5074224;28;20041;-70
2023/12/26 10:07:03;;;;;;;6.97;1.30;;;9.90;99.90;;;;;;5058074;28;20028;-68
2023/12/26 10:09:29;;;;;;;5.22;1.17;;;9.80;99.90;;;;;;5057601;28;20095;-71
2023/12/26 10:11:55;;;;;;;8.43;1.42;;;9.80;99.90;;;;;;5074019;28;20029;-68
2023/12/26 10:14:30;;;;;;;8.23;1.25;;;9.80;99.90;;;;;;5058227;28;20029;-72
2023/12/26 10:16:59;;;;;;;8.55;1.38;;;9.70;99.90;;;;;;5058256;28;20032;-72
2023/12/26 10:19:25;;;;;;;6.85;1.08;;;9.80;99.90;;;;;;5058270;28;20400;-72
2023/12/26 10:21:52;;;;;;;9.57;1.40;;;9.90;99.90;;;;;;5057933;28;20103;-72
2023/12/26 10:24:19;;;;;;;9.02;1.17;;;10.00;99.90;;;;;;5057897;28;20032;-73
2023/12/26 10:26:46;;;;;;;10.48;1.45;;;10.00;99.90;;;;;;5057983;28;20112;-73
2023/12/26 10:29:16;;;;;;;13.40;1.48;;;10.30;99.90;;;;;;5056829;28;20424;-72
2023/12/26 10:31:43;;;;;;;7.72;1.10;;;10.50;99.90;;;;;;5057610;28;20304;-66
2023/12/26 10:34:16;;;;;;;9.57;1.42;;;10.70;99.90;;;;;;5057675;28;20044;-65
2023/12/26 10:36:44;;;;;;;12.18;1.70;;;11.00;99.90;;;;;;5056911;28;20025;-62
2023/12/26 10:39:11;;;;;;;6.70;1.40;;;11.10;99.90;;;;;;5057474;28;20084;-62
2023/12/26 10:41:41;;;;;;;8.77;1.45;;;11.10;97.90;;;;;;5057479;28;20389;-62
2023/12/26 10:44:08;;;;;;;9.27;1.42;;;11.30;99.90;;;;;;5057560;28;20036;-62
2023/12/26 10:46:34;;;;;;;10.50;1.40;;;11.90;94.90;;;;;;5057594;28;20029;-62
2023/12/26 10:49:05;;;;;;;7.85;1.65;;;12.50;61.30;;;;;;5056515;28;20033;-63
2023/12/26 10:51:32;;;;;;;9.10;1.80;;;12.60;55.50;;;;;;5057374;28;20029;-62
2023/12/26 10:54:07;;;;;;;6.38;1.20;;;13.10;42.50;;;;;;5057311;28;20349;-62
2023/12/26 10:56:33;;;;;;;4.35;1.33;;;13.70;16.50;;;;;;5057375;28;20273;-61
2023/12/26 10:59:01;;;;;;;5.97;1.52;;;13.90;1.00;;;;;;5057260;28;20035;-62
2023/12/26 13:51:52;;;;;;;8.18;1.38;;;11.30;1.00;;;;;;5058673;28;20036;-61
2023/12/26 13:54:21;;;;;;;8.90;1.55;;;11.30;1.00;;;;;;5058550;28;20357;-61
2023/12/26 13:56:46;;;;;;;10.27;1.45;;;11.30;1.00;;;;;;5074277;28;20393;-61
2023/12/26 13:59:12;;;;;;;10.88;1.50;;;11.30;1.00;;;;;;5058394;28;20098;-61
2023/12/26 14:01:38;;;;;;;13.98;2.25;;;11.10;1.00;;;;;;5058443;28;20412;-61
2023/12/26 14:04:04;;;;;;;9.38;1.77;;;11.10;1.00;;;;;;5058268;28;20415;-60
2023/12/26 14:06:30;;;;;;;10.60;1.70;;;11.00;1.00;;;;;;5058262;28;20037;-62
2023/12/26 14:08:56;;;;;;;9.18;1.80;;;11.00;2.50;;;;;;5058308;28;20067;-60
2023/12/26 14:11:22;;;;;;;9.25;1.52;;;10.90;19.70;;;;;;5057594;28;20627;-60
2023/12/26 14:13:48;;;;;;;12.38;1.75;;;10.90;1.00;;;;;;5058381;28;20037;-60
2023/12/26 14:16:15;;;;;;;11.40;1.70;;;11.00;10.90;;;;;;5058199;28;20056;-60
2023/12/26 14:18:41;;;;;;;9.93;1.50;;;11.20;1.00;;;;;;5058119;28;20029;-61
2023/12/26 14:21:07;;;;;;;11.35;1.77;;;11.20;1.00;;;;;;5057986;28;20277;-60
2023/12/26 14:23:32;;;;;;;11.48;1.70;;;11.40;1.00;;;;;;5058049;28;20112;-60
2023/12/26 14:25:58;;;;;;;9.20;1.75;;;11.10;1.00;;;;;;5058027;28;20037;-60
2023/12/26 14:28:24;;;;;;;9.35;2.00;;;11.10;10.10;;;;;;5057212;28;20036;-59
2023/12/26 14:30:50;;;;;;;12.77;2.08;;;11.10;8.40;;;;;;5057620;28;20051;-60
2023/12/26 14:33:22;;;;;;;10.20;1.42;;;11.20;15.10;;;;;;5057048;28;20336;-60
2023/12/26 14:35:49;;;;;;;6.70;1.30;;;11.20;1.00;;;;;;5073896;28;20458;-59
2023/12/26 14:38:15;;;;;;;13.52;1.85;;;11.10;3.80;;;;;;5040360;28;20293;-62
2023/12/26 14:40:42;;;;;;;9.95;1.60;;;11.00;3.50;;;;;;5057636;28;20086;-60
2023/12/26 14:43:08;;;;;;;8.75;1.90;;;10.90;15.50;;;;;;5073434;28;20086;-61
2023/12/26 14:45:34;;;;;;;11.63;1.88;;;10.90;16.60;;;;;;5073368;28;20064;-60
2023/12/26 14:47:59;;;;;;;3.63;1.27;;;10.70;30.60;;;;;;5056707;28;20025;-60
2023/12/26 14:50:25;;;;;;;10.20;1.60;;;10.90;27.60;;;;;;5056483;28;20044;-60
2023/12/26 14:52:51;;;;;;;11.00;1.70;;;11.00;9.90;;;;;;5057512;28;20404;-60
2023/12/26 14:55:17;;;;;;;6.57;1.35;;;11.20;2.20;;;;;;5072855;28;20053;-61
2023/12/26 14:57:44;;;;;;;10.45;1.88;;;11.20;1.00;;;;;;5056391;28;20119;-60
2023/12/26 15:00:48;;;;;;;14.18;1.77;;;11.10;8.20;;;;;;5057236;28;20021;-60
2023/12/26 15:03:13;;;;;;;11.02;1.88;;;11.00;12.00;;;;;;5057190;28;20047;-61
2023/12/26 15:05:39;;;;;;;11.70;1.92;;;11.00;8.70;;;;;;5057205;28;20112;-62
2023/12/26 15:08:05;;;;;;;10.98;1.60;;;11.10;3.50;;;;;;5057127;28;20025;-61
2023/12/26 15:10:31;;;;;;;8.10;2.08;;;11.10;1.00;;;;;;5056892;28;20041;-61
2023/12/26 15:12:57;;;;;;;10.90;1.70;;;11.00;6.00;;;;;;5056928;28;20419;-62
2023/12/26 15:15:23;;;;;;;10.93;1.50;;;11.10;8.30;;;;;;5056915;28;20041;-62
2023/12/26 15:17:49;;;;;;;14.80;2.30;;;11.10;1.00;;;;;;5056176;28;20078;-62
2023/12/26 15:20:15;;;;;;;14.65;2.08;;;11.20;1.00;;;;;;5056045;28;20120;-61
2023/12/26 15:22:41;;;;;;;10.95;1.58;;;11.10;1.00;;;;;;5057171;28;20067;-62
2023/12/26 15:25:07;;;;;;;9.52;1.90;;;10.90;1.00;;;;;;5056749;28;20024;-62
2023/12/26 15:27:33;;;;;;;8.95;1.48;;;10.90;1.00;;;;;;5056724;28;20021;-62
2023/12/26 15:29:59;;;;;;;8.23;1.27;;;11.10;1.00;;;;;;5056699;28;20040;-62
2023/12/26 15:32:25;;;;;;;7.72;1.55;;;11.10;1.00;;;;;;5055951;28;20044;-61
2023/12/26 15:34:50;;;;;;;6.55;1.10;;;11.20;1.00;;;;;;5056738;28;20412;-60